createdAt,value
2018-09-28T00:02:21.874Z,100164.23
2018-09-28T00:04:50.517Z,100164.69
2018-09-28T00:07:19.186Z,100150.62
2018-09-28T00:09:47.974Z,100145.11
2018-09-28T00:12:16.685Z,100136.97
2018-09-28T00:14:45.438Z,100142.55
2018-09-28T00:17:14.213Z,100136.19
2018-09-28T00:19:42.933Z,100131.87
2018-09-28T00:22:11.599Z,100128.05
2018-09-28T00:24:40.225Z,100133.24
2018-09-28T00:27:08.908Z,100127.73
2018-09-28T00:29:37.571Z,100135.41
2018-09-28T00:32:06.382Z,100129.88
2018-09-28T00:34:35.041Z,100132.05
2018-09-28T00:37:03.775Z,100127.83
2018-09-28T00:39:32.522Z,100121.03
2018-09-28T00:42:01.162Z,100118.09
2018-09-28T00:44:29.806Z,100114.73
2018-09-28T00:46:58.511Z,100112.63
2018-09-28T00:49:27.252Z,100110.55
2018-09-28T00:51:55.946Z,100108.00
2018-09-28T00:54:24.638Z,100105.00
2018-09-28T00:56:53.281Z,100101.20
2018-09-28T00:59:21.945Z,100095.66
2018-09-28T01:01:50.585Z,100086.73
2018-09-28T01:04:19.192Z,100075.61
2018-09-28T01:06:47.824Z,100075.19
2018-09-28T01:09:16.826Z,100068.33
2018-09-28T01:11:45.727Z,100058.12
2018-09-28T01:14:14.390Z,100046.64
2018-09-28T01:16:43.018Z,100050.03
2018-09-28T01:19:11.665Z,100045.77
2018-09-28T01:21:40.356Z,100050.87
2018-09-28T01:24:09.039Z,100052.58
2018-09-28T01:26:37.722Z,100054.73
2018-09-28T01:29:06.391Z,100049.63
2018-09-28T01:31:35.058Z,100052.21
2018-09-28T01:34:03.707Z,100045.42
2018-09-28T01:36:32.339Z,100044.58
2018-09-28T01:39:00.989Z,100045.84
2018-09-28T01:41:29.638Z,100044.52
2018-09-28T01:43:58.318Z,100041.53
2018-09-28T01:46:26.986Z,100040.69
2018-09-28T01:48:55.653Z,100034.77
2018-09-28T01:51:24.274Z,100039.01
2018-09-28T01:53:52.912Z,100033.45
2018-09-28T01:56:21.559Z,100034.72
2018-09-28T01:58:50.189Z,100032.22
2018-09-28T02:01:18.835Z,100030.13
2018-09-28T02:03:47.463Z,100026.77
2018-09-28T02:06:16.094Z,100028.85
2018-09-28T02:08:44.715Z,100022.05
2018-09-28T02:11:13.368Z,100022.95
2018-09-28T02:13:42.054Z,100025.92
2018-09-28T02:16:10.701Z,100019.11
2018-09-28T02:18:39.350Z,100014.41
2018-09-28T02:21:08.041Z,100013.17
2018-09-28T02:23:36.697Z,100011.93
2018-09-28T02:26:05.335Z,100011.95
2018-09-28T02:28:33.969Z,100006.05
2018-09-28T02:31:02.673Z,100005.62
2018-09-28T02:33:34.121Z,100001.39
2018-09-28T02:36:02.769Z,99992.91
2018-09-28T02:38:36.739Z,99990.38
2018-09-28T02:41:05.383Z,99986.13
2018-09-28T02:43:34.069Z,99987.83
2018-09-28T02:46:02.726Z,99989.16
2018-09-28T02:48:31.351Z,99983.19
2018-09-28T02:50:59.984Z,99979.34
2018-09-28T02:53:28.618Z,99975.53
2018-09-28T02:55:57.266Z,99970.86
2018-09-28T02:58:25.914Z,99970.45
2018-09-28T03:00:54.534Z,99965.77
2018-09-28T03:03:23.170Z,99966.20
2018-09-28T03:05:51.842Z,99970.44
2018-09-28T03:08:20.460Z,99973.03
2018-09-28T03:10:49.144Z,99988.36
2018-09-28T03:13:17.731Z,99982.39
2018-09-28T03:15:46.381Z,99982.84
2018-09-28T03:18:15.056Z,99984.54
2018-09-28T03:20:43.713Z,99983.72
2018-09-28T03:23:12.350Z,99977.34
2018-09-28T03:25:41.571Z,99974.38
2018-09-28T03:28:10.218Z,99967.55
2018-09-28T03:30:38.844Z,99958.19
2018-09-28T03:33:07.508Z,99957.80
2018-09-28T03:35:36.129Z,99956.52
2018-09-28T03:38:04.812Z,99961.16
2018-09-28T03:40:33.527Z,99955.22
2018-09-28T03:43:02.098Z,99965.87
2018-09-28T03:45:30.703Z,99957.38
2018-09-28T03:47:59.319Z,99962.03
2018-09-28T03:50:28.015Z,99955.25
2018-09-28T03:52:56.686Z,99962.06
2018-09-28T03:55:25.331Z,99963.28
2018-09-28T03:57:53.958Z,99968.39
2018-09-28T04:00:22.581Z,99958.15
2018-09-28T04:02:51.243Z,99956.91
2018-09-28T04:05:19.870Z,99959.02
2018-09-28T04:07:48.612Z,99954.77
2018-09-28T04:10:17.277Z,99953.42
2018-09-28T04:12:45.918Z,99952.61
2018-09-28T04:15:14.704Z,99954.75
2018-09-28T04:17:43.302Z,99955.57
2018-09-28T04:20:11.942Z,99963.22
2018-09-28T04:22:40.560Z,99963.63
2018-09-28T04:25:09.322Z,99961.86
2018-09-28T04:27:43.429Z,99961.84
2018-09-28T04:30:12.089Z,99961.39
2018-09-28T04:32:40.737Z,99965.23
2018-09-28T04:35:09.401Z,99961.40
2018-09-28T04:37:38.035Z,99962.33
2018-09-28T04:40:06.813Z,99961.52
2018-09-28T04:42:35.468Z,99959.82
2018-09-28T04:45:04.215Z,99965.77
2018-09-28T04:47:32.907Z,99973.38
2018-09-28T04:50:01.569Z,99969.13
2018-09-28T04:52:30.218Z,99967.89
2018-09-28T04:54:58.851Z,99975.03
2018-09-28T04:57:27.483Z,99975.84
2018-09-28T04:59:56.149Z,99974.57
2018-09-28T05:02:24.806Z,99973.30
2018-09-28T05:04:53.522Z,99973.28
2018-09-28T05:07:22.216Z,99983.40
2018-09-28T05:09:50.911Z,99981.21
2018-09-28T05:12:19.717Z,99979.09
2018-09-28T05:14:48.477Z,99973.14
2018-09-28T05:17:17.303Z,99974.91
2018-09-28T05:19:46.000Z,99976.19
2018-09-28T05:22:14.785Z,99983.38
2018-09-28T05:24:43.523Z,99979.91
2018-09-28T05:27:12.243Z,99985.89
2018-09-28T05:29:40.972Z,99987.58
2018-09-28T05:32:09.840Z,99994.30
2018-09-28T05:34:38.479Z,99991.76
2018-09-28T05:37:07.283Z,99996.46
2018-09-28T05:39:36.079Z,99994.29
2018-09-28T05:42:04.727Z,99990.86
2018-09-28T05:44:33.379Z,99989.91
2018-09-28T05:47:02.038Z,99989.81
2018-09-28T05:49:30.726Z,99990.67
2018-09-28T05:51:59.514Z,99983.30
2018-09-28T05:54:28.157Z,99987.39
2018-09-28T05:56:56.866Z,99983.52
2018-09-28T05:59:30.598Z,99986.02
2018-09-28T06:02:04.470Z,99983.38
2018-09-28T06:04:38.326Z,99984.14
2018-09-28T06:07:07.094Z,99982.77
2018-09-28T06:09:35.734Z,99986.13
2018-09-28T06:12:04.428Z,99976.73
2018-09-28T06:14:33.109Z,99984.33
2018-09-28T06:17:01.838Z,99981.17
2018-09-28T06:19:30.571Z,99980.56
2018-09-28T06:21:59.555Z,99977.15
2018-09-28T06:24:29.088Z,99988.11
2018-09-28T06:26:57.799Z,99979.03
2018-09-28T06:29:26.522Z,99986.17
2018-09-28T06:31:55.266Z,99985.66
2018-09-28T06:34:23.978Z,99989.81
2018-09-28T06:36:55.621Z,99991.40
2018-09-28T06:39:24.368Z,99991.27
2018-09-28T06:41:53.100Z,99997.52
2018-09-28T06:44:21.809Z,99993.05
2018-09-28T06:46:50.534Z,100000.91
2018-09-28T06:49:19.222Z,99998.91
2018-09-28T06:51:47.979Z,99991.48
2018-09-28T06:54:16.734Z,99988.10
2018-09-28T06:56:45.427Z,99981.49
2018-09-28T06:59:14.170Z,99984.33
2018-09-28T07:01:42.903Z,99975.50
2018-09-28T07:04:11.582Z,99986.99
2018-09-28T07:06:40.343Z,99986.44
2018-09-28T07:09:11.011Z,99983.23
2018-09-28T07:11:39.686Z,99979.56
2018-09-28T07:14:08.667Z,99981.82
2018-09-28T07:16:37.407Z,99977.30
2018-09-28T07:19:06.335Z,99973.50
2018-09-28T07:21:35.041Z,99971.29
2018-09-28T07:24:03.908Z,99975.81
2018-09-28T07:26:32.585Z,99979.11
2018-09-28T07:29:01.323Z,99978.70
2018-09-28T07:31:29.978Z,99983.08
2018-09-28T07:33:58.707Z,99975.59
2018-09-28T07:36:27.606Z,99982.12
2018-09-28T07:38:56.271Z,99978.14
2018-09-28T07:41:24.999Z,99979.97
2018-09-28T07:43:53.659Z,99976.08
2018-09-28T07:46:22.346Z,99984.86
2018-09-28T07:48:51.014Z,99986.42
2018-09-28T07:51:19.659Z,99983.63
2018-09-28T07:53:48.293Z,99992.84
2018-09-28T07:56:22.075Z,99990.11
2018-09-28T07:58:50.798Z,99983.05
2018-09-28T08:01:19.440Z,99984.09
2018-09-28T08:03:48.163Z,99980.23
2018-09-28T08:06:16.847Z,99978.03
2018-09-28T08:08:45.563Z,99982.81
2018-09-28T08:11:14.254Z,99979.11
2018-09-28T08:13:42.939Z,99981.09
2018-09-28T08:16:11.666Z,99973.14
2018-09-28T08:18:40.327Z,99966.25
2018-09-28T08:21:09.143Z,99964.92
2018-09-28T08:23:37.804Z,99966.12
2018-09-28T08:26:07.035Z,99965.02
2018-09-28T08:28:35.722Z,99968.50
2018-09-28T08:31:04.422Z,99967.12
2018-09-28T08:33:33.078Z,99963.78
2018-09-28T08:36:01.757Z,99972.08
2018-09-28T08:38:30.437Z,99965.44
2018-09-28T08:40:59.100Z,99970.35
2018-09-28T08:43:27.836Z,99965.41
2018-09-28T08:45:56.448Z,99961.53
2018-09-28T08:48:25.169Z,99960.64
2018-09-28T08:50:53.849Z,99965.75
2018-09-28T08:53:22.704Z,99954.87
2018-09-28T08:55:51.360Z,99952.80
2018-09-28T08:58:20.126Z,99950.09
2018-09-28T09:00:48.838Z,99944.19
2018-09-28T09:03:24.053Z,99949.13
2018-09-28T09:05:52.743Z,99941.94
2018-09-28T09:08:21.422Z,99943.20
2018-09-28T09:10:50.042Z,99944.47
2018-09-28T09:13:18.744Z,99945.59
2018-09-28T09:15:47.365Z,99938.98
2018-09-28T09:18:16.149Z,99937.97
2018-09-28T09:20:44.862Z,99937.84
2018-09-28T09:23:13.565Z,99933.30
2018-09-28T09:25:42.222Z,99931.31
2018-09-28T09:28:10.922Z,99919.41
2018-09-28T09:30:39.626Z,99914.33
2018-09-28T09:33:08.310Z,99910.89
2018-09-28T09:35:36.969Z,99908.22
2018-09-28T09:38:05.714Z,99907.14
2018-09-28T09:40:34.398Z,99902.26
2018-09-28T09:43:03.114Z,99907.66
2018-09-28T09:45:31.790Z,99904.14
2018-09-28T09:48:00.432Z,99901.15
2018-09-28T09:50:29.094Z,99905.87
2018-09-28T09:52:57.759Z,99898.02
2018-09-28T09:55:26.434Z,99895.52
2018-09-28T09:57:55.209Z,99890.03
2018-09-28T10:00:28.982Z,99885.84
2018-09-28T10:03:03.763Z,99875.09
2018-09-28T10:05:35.443Z,99874.95
2018-09-28T10:08:04.086Z,99869.41
2018-09-28T10:10:32.729Z,99872.37
2018-09-28T10:13:01.398Z,99869.06
2018-09-28T10:15:30.075Z,99864.72
2018-09-28T10:17:58.786Z,99858.72
2018-09-28T10:20:27.463Z,99863.89
2018-09-28T10:22:56.189Z,99850.73
2018-09-28T10:25:24.883Z,99850.42
2018-09-28T10:27:53.638Z,99855.42
2018-09-28T10:30:22.267Z,99852.53
2018-09-28T10:32:50.895Z,99851.39
2018-09-28T10:35:19.650Z,99848.95
2018-09-28T10:37:48.313Z,99843.09
2018-09-28T10:40:17.077Z,99839.88
2018-09-28T10:42:45.757Z,99834.52
2018-09-28T10:45:19.947Z,99837.03
2018-09-28T10:47:48.793Z,99833.73
2018-09-28T10:50:17.546Z,99822.30
2018-09-28T10:52:46.458Z,99820.67
2018-09-28T10:55:15.236Z,99832.79
2018-09-28T10:57:43.947Z,99811.77
2018-09-28T11:00:12.731Z,99802.13
2018-09-28T11:02:41.538Z,99812.54
2018-09-28T11:05:11.540Z,99811.88
2018-09-28T11:07:41.857Z,99809.48
2018-09-28T11:10:10.791Z,99814.89
2018-09-28T11:12:39.509Z,99803.00
2018-09-28T11:15:08.425Z,99803.73
2018-09-28T11:17:37.941Z,99775.97
2018-09-28T11:20:07.251Z,99769.27
2018-09-28T11:22:36.036Z,99768.73
2018-09-28T11:25:04.865Z,99776.73
2018-09-28T11:27:33.669Z,99776.35
2018-09-28T11:30:02.399Z,99769.45
2018-09-28T11:32:31.159Z,99763.15
2018-09-28T11:34:59.956Z,99755.84
2018-09-28T11:37:28.810Z,99751.73
2018-09-28T11:39:57.567Z,99750.05
2018-09-28T11:42:26.506Z,99741.33
2018-09-28T11:44:55.301Z,99743.69
2018-09-28T11:47:23.977Z,99730.81
2018-09-28T11:49:52.644Z,99727.55
2018-09-28T11:52:21.308Z,99731.52
2018-09-28T11:54:49.949Z,99729.89
2018-09-28T11:57:18.708Z,99719.84
2018-09-28T11:59:47.442Z,99721.09
2018-09-28T12:02:16.246Z,99714.97
2018-09-28T12:04:44.976Z,99718.75
2018-09-28T12:07:13.897Z,99709.09
2018-09-28T12:09:42.521Z,99708.88
2018-09-28T12:12:11.251Z,99700.04
2018-09-28T12:14:39.921Z,99703.65
2018-09-28T12:17:08.687Z,99695.55
2018-09-28T12:19:37.382Z,99705.56
2018-09-28T12:22:06.191Z,99694.88
2018-09-28T12:24:34.822Z,99696.06
2018-09-28T12:27:03.483Z,99690.42
2018-09-28T12:29:32.200Z,99688.74
2018-09-28T12:32:01.974Z,99691.27
2018-09-28T12:34:30.791Z,99682.48
2018-09-28T12:36:59.510Z,99689.91
2018-09-28T12:39:28.410Z,99677.62
2018-09-28T12:41:57.057Z,99675.53
2018-09-28T12:44:26.306Z,99679.57
2018-09-28T12:46:55.007Z,99665.22
2018-09-28T12:49:23.825Z,99661.36
2018-09-28T12:51:53.169Z,99658.15
2018-09-28T12:54:21.857Z,99663.66
2018-09-28T12:56:50.620Z,99655.88
2018-09-28T12:59:19.412Z,99653.63
2018-09-28T13:01:48.090Z,99649.05
2018-09-28T13:04:18.338Z,99643.54
2018-09-28T13:06:48.774Z,99645.95
2018-09-28T13:09:17.728Z,99632.06
2018-09-28T13:11:46.834Z,99643.80
2018-09-28T13:14:15.637Z,99644.00
2018-09-28T13:16:44.444Z,99633.98
2018-09-28T13:19:13.281Z,99624.62
2018-09-28T13:21:42.036Z,99621.12
2018-09-28T13:24:10.823Z,99619.70
2018-09-28T13:26:39.554Z,99620.53
2018-09-28T13:29:08.397Z,99610.38
2018-09-28T13:31:37.142Z,99612.54
2018-09-28T13:34:05.920Z,99603.83
2018-09-28T13:36:34.786Z,99603.50
2018-09-28T13:39:05.108Z,99597.63
2018-09-28T13:41:33.740Z,99601.59
2018-09-28T13:44:02.469Z,99593.01
2018-09-28T13:46:31.276Z,99592.38
2018-09-28T13:48:59.996Z,99585.14
2018-09-28T13:51:28.667Z,99592.94
2018-09-28T13:53:57.498Z,99599.66
2018-09-28T13:56:26.323Z,99595.02
2018-09-28T13:58:54.969Z,99589.48
2018-09-28T14:01:23.739Z,99592.36
2018-09-28T14:03:52.624Z,99585.73
2018-09-28T14:06:21.460Z,99590.42
2018-09-28T14:08:50.170Z,99586.61
2018-09-28T14:11:18.890Z,99583.19
2018-09-28T14:13:47.684Z,99583.23
2018-09-28T14:16:16.462Z,99584.65
2018-09-28T14:18:45.187Z,99568.73
2018-09-28T14:21:13.790Z,99571.10
2018-09-28T14:23:42.495Z,99566.79
2018-09-28T14:26:11.146Z,99566.28
2018-09-28T14:28:39.909Z,99571.27
2018-09-28T14:31:08.593Z,99573.34
2018-09-28T14:33:37.344Z,99570.44
2018-09-28T14:36:06.156Z,99559.81
2018-09-28T14:38:36.305Z,99559.88
2018-09-28T14:41:05.127Z,99563.35
2018-09-28T14:43:33.831Z,99554.22
2018-09-28T14:46:02.550Z,99559.36
2018-09-28T14:48:31.699Z,99564.19
2018-09-28T14:51:00.243Z,99554.45
2018-09-28T14:53:28.933Z,99545.02
2018-09-28T14:55:57.580Z,99546.73
2018-09-28T14:58:26.279Z,99546.03
2018-09-28T15:00:55.023Z,99545.65
2018-09-28T15:03:23.761Z,99558.24
2018-09-28T15:05:52.491Z,99541.19
2018-09-28T15:08:21.295Z,99545.89
2018-09-28T15:10:49.960Z,99544.80
2018-09-28T15:13:18.637Z,99542.27
2018-09-28T15:15:47.384Z,99552.44
2018-09-28T15:18:16.181Z,99537.27
2018-09-28T15:20:44.954Z,99542.13
2018-09-28T15:23:13.614Z,99545.91
2018-09-28T15:25:42.576Z,99543.83
2018-09-28T15:28:11.329Z,99552.95
2018-09-28T15:30:40.122Z,99547.18
2018-09-28T15:33:08.835Z,99556.23
2018-09-28T15:35:37.565Z,99557.87
2018-09-28T15:38:06.396Z,99548.14
2018-09-28T15:40:35.439Z,99551.27
2018-09-28T15:43:04.235Z,99548.78
2018-09-28T15:45:33.001Z,99563.81
2018-09-28T15:48:01.723Z,99559.54
2018-09-28T15:50:31.310Z,99564.06
2018-09-28T15:53:00.017Z,99563.75
2018-09-28T15:55:28.666Z,99554.98
2018-09-28T15:57:57.485Z,99556.80
2018-09-28T16:00:26.178Z,99565.16
2018-09-28T16:02:54.844Z,99561.38
2018-09-28T16:05:23.546Z,99566.67
2018-09-28T16:07:52.326Z,99559.37
2018-09-28T16:10:20.981Z,99561.86
2018-09-28T16:12:49.761Z,99565.70
2018-09-28T16:15:18.436Z,99570.02
2018-09-28T16:17:47.142Z,99559.31
2018-09-28T16:20:15.826Z,99564.57
2018-09-28T16:22:44.502Z,99559.39
2018-09-28T16:25:13.182Z,99569.84
2018-09-28T16:27:41.906Z,99568.22
2018-09-28T16:30:10.619Z,99572.63
2018-09-28T16:32:39.413Z,99572.14
2018-09-28T16:35:08.195Z,99575.86
2018-09-28T16:37:36.865Z,99573.37
2018-09-28T16:40:05.584Z,99578.28
2018-09-28T16:42:34.285Z,99573.89
2018-09-28T16:45:02.961Z,99579.50
2018-09-28T16:47:31.633Z,99575.20
2018-09-28T16:50:00.326Z,99580.89
2018-09-28T16:52:29.038Z,99580.80
2018-09-28T16:54:57.690Z,99577.42
2018-09-28T16:57:26.358Z,99582.25
2018-09-28T16:59:55.067Z,99592.66
2018-09-28T17:02:23.695Z,99590.23
2018-09-28T17:04:52.419Z,99594.47
2018-09-28T17:07:21.090Z,99607.83
2018-09-28T17:09:49.789Z,99610.33
2018-09-28T17:12:18.487Z,99605.23
2018-09-28T17:14:47.190Z,99610.15
2018-09-28T17:17:15.863Z,99608.00
2018-09-28T17:19:44.535Z,99615.77
2018-09-28T17:22:13.366Z,99619.48
2018-09-28T17:24:42.054Z,99623.56
2018-09-28T17:27:10.710Z,99630.02
2018-09-28T17:29:39.414Z,99629.67
2018-09-28T17:32:08.194Z,99636.76
2018-09-28T17:34:37.289Z,99635.45
2018-09-28T17:37:06.035Z,99638.48
2018-09-28T17:39:34.663Z,99642.39
2018-09-28T17:42:03.370Z,99647.32
2018-09-28T17:44:32.039Z,99648.55
2018-09-28T17:47:00.719Z,99650.98
2018-09-28T17:49:29.404Z,99668.02
2018-09-28T17:51:59.042Z,99676.55
2018-09-28T17:54:27.781Z,99681.81
2018-09-28T17:56:56.518Z,99689.30
2018-09-28T17:59:25.249Z,99699.14
2018-09-28T18:01:54.554Z,99709.16
2018-09-28T18:04:23.242Z,99706.59
2018-09-28T18:06:52.939Z,99711.37
2018-09-28T18:09:21.609Z,99715.40
2018-09-28T18:11:50.272Z,99719.94
2018-09-28T18:14:19.068Z,99723.33
2018-09-28T18:16:47.768Z,99722.38
2018-09-28T18:19:16.705Z,99728.31
2018-09-28T18:21:45.383Z,99726.55
2018-09-28T18:24:14.127Z,99729.92
2018-09-28T18:26:42.919Z,99734.91
2018-09-28T18:29:11.659Z,99735.92
2018-09-28T18:31:40.398Z,99743.72
2018-09-28T18:34:09.117Z,99747.38
2018-09-28T18:36:37.898Z,99759.06
2018-09-28T18:39:08.432Z,99759.67
2018-09-28T18:41:37.133Z,99757.47
2018-09-28T18:44:06.113Z,99759.98
2018-09-28T18:46:34.846Z,99760.68
2018-09-28T18:49:03.660Z,99766.17
2018-09-28T18:51:32.315Z,99769.62
2018-09-28T18:54:01.069Z,99776.20
2018-09-28T18:56:29.761Z,99780.61
2018-09-28T18:58:58.508Z,99790.32
2018-09-28T19:01:27.259Z,99790.08
2018-09-28T19:03:56.094Z,99800.46
2018-09-28T19:06:24.896Z,99800.75
2018-09-28T19:08:53.675Z,99815.23
2018-09-28T19:11:22.382Z,99813.77
2018-09-28T19:13:51.131Z,99809.00
2018-09-28T19:16:19.868Z,99813.09
2018-09-28T19:18:48.631Z,99815.64
2018-09-28T19:21:17.392Z,99819.67
2018-09-28T19:23:46.086Z,99826.97
2018-09-28T19:26:14.771Z,99823.59
2018-09-28T19:28:43.505Z,99822.38
2018-09-28T19:31:12.354Z,99831.28
2018-09-28T19:33:41.070Z,99839.20
2018-09-28T19:36:09.881Z,99844.11
2018-09-28T19:38:38.704Z,99844.78
2018-09-28T19:41:07.536Z,99854.19
2018-09-28T19:43:36.435Z,99850.66
2018-09-28T19:46:05.158Z,99857.28
2018-09-28T19:48:34.244Z,99868.77
2018-09-28T19:51:03.007Z,99870.41
2018-09-28T19:53:31.779Z,99868.90
2018-09-28T19:56:00.503Z,99871.63
2018-09-28T19:58:29.213Z,99884.00
2018-09-28T20:00:57.919Z,99878.58
2018-09-28T20:03:26.677Z,99881.00
2018-09-28T20:05:55.399Z,99891.18
2018-09-28T20:08:24.114Z,99894.11
2018-09-28T20:10:52.925Z,99904.09
2018-09-28T20:13:21.613Z,99895.64
2018-09-28T20:15:50.330Z,99902.24
2018-09-28T20:18:19.036Z,99916.09
2018-09-28T20:20:47.781Z,99916.53
2018-09-28T20:23:16.450Z,99916.48
2018-09-28T20:25:45.167Z,99911.35
2018-09-28T20:28:13.912Z,99932.87
2018-09-28T20:30:46.631Z,99932.51
2018-09-28T20:33:15.321Z,99928.45
2018-09-28T20:35:44.039Z,99922.73
2018-09-28T20:38:12.799Z,99930.70
2018-09-28T20:40:41.570Z,99928.27
2018-09-28T20:43:10.242Z,99933.19
2018-09-28T20:45:38.995Z,99931.45
2018-09-28T20:48:07.862Z,99939.13
2018-09-28T20:50:36.591Z,99935.64
2018-09-28T20:53:05.302Z,99940.48
2018-09-28T20:55:34.126Z,99942.13
2018-09-28T20:58:02.770Z,99950.73
2018-09-28T21:00:31.478Z,99971.33
2018-09-28T21:03:00.179Z,99956.80
2018-09-28T21:05:28.878Z,99964.89
2018-09-28T21:07:57.583Z,99970.58
2018-09-28T21:10:26.249Z,99973.27
2018-09-28T21:12:54.939Z,99990.53
2018-09-28T21:15:23.642Z,99978.25
2018-09-28T21:17:52.371Z,99979.83
2018-09-28T21:20:21.026Z,99986.71
2018-09-28T21:22:49.701Z,99977.08
2018-09-28T21:25:18.455Z,99989.47
2018-09-28T21:27:47.297Z,99990.96
2018-09-28T21:30:16.046Z,100018.03
2018-09-28T21:32:44.735Z,99999.73
2018-09-28T21:35:13.412Z,100010.64
2018-09-28T21:37:42.121Z,100004.69
2018-09-28T21:40:10.881Z,100023.34
2018-09-28T21:42:39.568Z,100021.23
2018-09-28T21:45:08.386Z,100033.53
2018-09-28T21:47:37.164Z,100046.61
2018-09-28T21:50:05.845Z,100041.78
2018-09-28T21:52:34.601Z,100042.57
2018-09-28T21:55:03.280Z,100046.28
2018-09-28T21:57:31.961Z,100047.73
2018-09-28T22:00:00.621Z,100055.41
2018-09-28T22:02:29.275Z,100047.14
2018-09-28T22:04:57.978Z,100076.61
2018-09-28T22:07:26.735Z,100067.48
2018-09-28T22:09:55.399Z,100080.19
2018-09-28T22:12:24.026Z,100082.44
2018-09-28T22:14:52.736Z,100068.95
2018-09-28T22:17:21.422Z,100078.45
2018-09-28T22:19:50.526Z,100069.18
2018-09-28T22:22:19.223Z,100082.53
2018-09-28T22:24:47.930Z,100063.70
2018-09-28T22:27:16.582Z,100067.88
2018-09-28T22:29:45.325Z,100078.03
2018-09-28T22:32:14.116Z,100073.84
2018-09-28T22:34:42.801Z,100089.98
2018-09-28T22:37:11.486Z,100085.84
2018-09-28T22:39:40.169Z,100084.33
2018-09-28T22:42:09.033Z,100085.86
2018-09-28T22:44:37.714Z,100123.84
2018-09-28T22:47:06.454Z,100091.45
2018-09-28T22:49:35.077Z,100090.83
2018-09-28T22:52:03.729Z,100098.55
2018-09-28T22:54:32.392Z,100095.12
2018-09-28T22:57:01.046Z,100099.55
2018-09-28T22:59:29.672Z,100109.47
2018-09-28T23:01:58.328Z,100126.94
2018-09-28T23:04:26.992Z,100109.59
2018-09-28T23:06:55.689Z,100112.74
2018-09-28T23:09:24.347Z,100108.52
2018-09-28T23:11:53.011Z,100106.32
2018-09-28T23:14:21.703Z,100102.72
2018-09-28T23:16:50.382Z,100109.53
2018-09-28T23:19:19.070Z,100105.72
2018-09-28T23:21:47.709Z,100120.88
2018-09-28T23:24:16.410Z,100114.45
2018-09-28T23:26:45.063Z,100123.27
2018-09-28T23:29:13.749Z,100130.35
2018-09-28T23:31:42.423Z,100126.12
2018-09-28T23:34:11.110Z,100123.91
2018-09-28T23:36:39.800Z,100125.25
2018-09-28T23:39:09.935Z,100126.88
2018-09-28T23:41:39.034Z,100130.75
2018-09-28T23:44:08.041Z,100141.14
2018-09-28T23:46:36.874Z,100143.28
2018-09-28T23:49:05.740Z,100142.84
2018-09-28T23:51:34.380Z,100143.34
2018-09-28T23:54:03.117Z,100146.71
2018-09-28T23:56:31.757Z,100153.53
2018-09-28T23:59:00.388Z,100144.64
